Hovedside
METAR-TAF:

METAR-TAF

Lufthavner :

Halli lufthavn

Jämsä, Finland

breddegrad: 61-51N, lengdegrad: 024-48E, høyde over havet: 143 m

Gjeldene værobservasjon

Denne rapporten ble laget for 22 minutter siden, klokken 18:50 UTC
Vind 5 kt fra Vest
Temperatur -5°C
Luftfuktighet 93%
Trykk 1027 hPa
Sikt 10 km eller mer
Få skyer i en høyde av 1200 ft

METAR: EFHA 211850Z AUTO 27005KT 9999 FEW012 M05/M06 Q1027

Tid: 21:12 (19:12 UTC)

Varsel

Denne rapporten ble laget for 7 timer og 49 minutter siden, klokken 11:23 UTC
Varsel gyldig fra 21. klokken 12 UTC til 21. klokken 14 UTC
Vind 5 kt fra Vest-nordvest
Sikt 10 km eller mer
ingen skyer under 1500 m og ingen bygeskyer

TAF: EFHA 211123Z 2112/2114 30005KT CAVOK

Værobservasjoner og værvarsel for over 4000 flyplasser (METAR- og TAF-rapporter).

Tilgjengelige stasjoner er representert av de røde og gule prikkene på kartet.

Hold musepekeren over prikken for å se navnet på stasjonen.

Klikk så for å se værobservasjoner og -varsler.

For å forandre kartet kan du klikke på den grønne knappen med svart kryss for å zoome inn, på den grønne knappen med strek for å zoome ut, eller på de grønne pilene for å se tilstøtende kart.


METAR-TAF: